sensor_id;sensor_type;location;lat;lon;timestamp;temperature;humidity
8709;DHT22;4391;48.678;9.280;2022-07-29T00:02:22;18.40;99.90
8709;DHT22;4391;48.678;9.280;2022-07-29T00:04:49;18.40;99.90
8709;DHT22;4391;48.678;9.280;2022-07-29T00:07:15;18.50;99.90
8709;DHT22;4391;48.678;9.280;2022-07-29T00:09:42;18.50;99.90
8709;DHT22;4391;48.678;9.280;2022-07-29T00:12:09;18.50;99.90
8709;DHT22;4391;48.678;9.280;2022-07-29T00:14:37;18.60;99.90
8709;DHT22;4391;48.678;9.280;2022-07-29T00:17:03;18.60;99.90
8709;DHT22;4391;48.678;9.280;2022-07-29T00:19:30;18.60;99.90
8709;DHT22;4391;48.678;9.280;2022-07-29T00:21:57;18.60;99.90
8709;DHT22;4391;48.678;9.280;2022-07-29T00:24:24;18.60;99.90
8709;DHT22;4391;48.678;9.280;2022-07-29T00:26:51;18.50;99.90
8709;DHT22;4391;48.678;9.280;2022-07-29T00:29:17;18.50;99.90
8709;DHT22;4391;48.678;9.280;2022-07-29T00:31:46;18.50;99.90
8709;DHT22;4391;48.678;9.280;2022-07-29T00:34:12;18.40;99.90
8709;DHT22;4391;48.678;9.280;2022-07-29T00:36:53;18.40;99.90
8709;DHT22;4391;48.678;9.280;2022-07-29T00:39:20;18.30;99.90
8709;DHT22;4391;48.678;9.280;2022-07-29T00:41:46;18.20;99.90
8709;DHT22;4391;48.678;9.280;2022-07-29T00:44:14;18.20;99.90
8709;DHT22;4391;48.678;9.280;2022-07-29T00:46:40;18.10;99.90
8709;DHT22;4391;48.678;9.280;2022-07-29T00:49:09;18.10;99.90
8709;DHT22;4391;48.678;9.280;2022-07-29T00:51:36;18.00;99.90
8709;DHT22;4391;48.678;9.280;2022-07-29T00:54:04;18.00;99.90
8709;DHT22;4391;48.678;9.280;2022-07-29T00:56:31;17.90;99.90
8709;DHT22;4391;48.678;9.280;2022-07-29T00:58:59;17.90;99.90
8709;DHT22;4391;48.678;9.280;2022-07-29T01:01:26;17.90;99.90
8709;DHT22;4391;48.678;9.280;2022-07-29T01:03:53;17.90;99.90
8709;DHT22;4391;48.678;9.280;2022-07-29T01:06:22;17.90;99.90
8709;DHT22;4391;48.678;9.280;2022-07-29T01:08:50;17.90;99.90
8709;DHT22;4391;48.678;9.280;2022-07-29T01:11:18;17.80;99.90
8709;DHT22;4391;48.678;9.280;2022-07-29T01:13:46;17.80;99.90
8709;DHT22;4391;48.678;9.280;2022-07-29T01:16:18;17.70;99.90
8709;DHT22;4391;48.678;9.280;2022-07-29T01:18:49;17.70;99.90
8709;DHT22;4391;48.678;9.280;2022-07-29T01:21:33;17.60;99.90
8709;DHT22;4391;48.678;9.280;2022-07-29T01:24:20;17.60;99.90
8709;DHT22;4391;48.678;9.280;2022-07-29T01:26:52;17.60;99.90
8709;DHT22;4391;48.678;9.280;2022-07-29T01:29:26;17.60;99.90
8709;DHT22;4391;48.678;9.280;2022-07-29T01:31:59;17.60;99.90
8709;DHT22;4391;48.678;9.280;2022-07-29T01:34:33;17.60;99.90
8709;DHT22;4391;48.678;9.280;2022-07-29T01:37:06;17.50;99.90
8709;DHT22;4391;48.678;9.280;2022-07-29T01:39:36;17.50;99.90
8709;DHT22;4391;48.678;9.280;2022-07-29T01:42:30;17.50;99.90
8709;DHT22;4391;48.678;9.280;2022-07-29T01:45:29;17.60;99.90
8709;DHT22;4391;48.678;9.280;2022-07-29T01:48:14;17.60;99.90
8709;DHT22;4391;48.678;9.280;2022-07-29T01:51:12;17.60;99.90
8709;DHT22;4391;48.678;9.280;2022-07-29T01:54:05;17.50;99.90
8709;DHT22;4391;48.678;9.280;2022-07-29T01:56:32;17.60;99.90
8709;DHT22;4391;48.678;9.280;2022-07-29T01:59:01;17.60;99.90
8709;DHT22;4391;48.678;9.280;2022-07-29T02:01:31;17.60;99.90
8709;DHT22;4391;48.678;9.280;2022-07-29T02:03:59;17.60;99.90
8709;DHT22;4391;48.678;9.280;2022-07-29T02:06:30;17.50;99.90
8709;DHT22;4391;48.678;9.280;2022-07-29T02:08:59;17.60;99.90
8709;DHT22;4391;48.678;9.280;2022-07-29T02:11:27;17.60;99.90
8709;DHT22;4391;48.678;9.280;2022-07-29T02:13:57;17.60;99.90
8709;DHT22;4391;48.678;9.280;2022-07-29T02:16:26;17.60;99.90
8709;DHT22;4391;48.678;9.280;2022-07-29T02:18:57;17.60;99.90
8709;DHT22;4391;48.678;9.280;2022-07-29T02:21:28;17.60;99.90
8709;DHT22;4391;48.678;9.280;2022-07-29T02:23:59;17.50;99.90
8709;DHT22;4391;48.678;9.280;2022-07-29T02:26:27;17.40;99.90
8709;DHT22;4391;48.678;9.280;2022-07-29T02:28:56;17.40;99.90
8709;DHT22;4391;48.678;9.280;2022-07-29T02:31:25;17.30;99.90
8709;DHT22;4391;48.678;9.280;2022-07-29T02:33:52;17.30;99.90
8709;DHT22;4391;48.678;9.280;2022-07-29T02:36:23;17.10;99.90
8709;DHT22;4391;48.678;9.280;2022-07-29T02:38:51;17.10;99.90
8709;DHT22;4391;48.678;9.280;2022-07-29T02:41:26;17.10;99.90
8709;DHT22;4391;48.678;9.280;2022-07-29T02:43:57;17.00;99.90
8709;DHT22;4391;48.678;9.280;2022-07-29T02:46:29;17.00;99.90
8709;DHT22;4391;48.678;9.280;2022-07-29T02:49:01;16.90;99.90
8709;DHT22;4391;48.678;9.280;2022-07-29T02:51:36;16.90;99.90
8709;DHT22;4391;48.678;9.280;2022-07-29T02:54:08;16.90;99.90
8709;DHT22;4391;48.678;9.280;2022-07-29T02:56:36;16.80;99.90
8709;DHT22;4391;48.678;9.280;2022-07-29T02:59:09;16.80;99.90
8709;DHT22;4391;48.678;9.280;2022-07-29T03:01:40;16.80;99.90
8709;DHT22;4391;48.678;9.280;2022-07-29T03:04:09;16.70;99.90
8709;DHT22;4391;48.678;9.280;2022-07-29T03:06:40;16.70;99.90
8709;DHT22;4391;48.678;9.280;2022-07-29T03:09:10;16.70;99.90
8709;DHT22;4391;48.678;9.280;2022-07-29T03:11:37;16.70;99.90
8709;DHT22;4391;48.678;9.280;2022-07-29T03:14:05;16.60;99.90
8709;DHT22;4391;48.678;9.280;2022-07-29T03:16:33;16.60;99.90
8709;DHT22;4391;48.678;9.280;2022-07-29T03:19:03;16.60;99.90
8709;DHT22;4391;48.678;9.280;2022-07-29T03:21:30;16.60;99.90
8709;DHT22;4391;48.678;9.280;2022-07-29T03:23:58;16.60;99.90
8709;DHT22;4391;48.678;9.280;2022-07-29T03:26:25;16.60;99.90
8709;DHT22;4391;48.678;9.280;2022-07-29T03:28:52;16.50;99.90
8709;DHT22;4391;48.678;9.280;2022-07-29T03:31:19;16.50;99.90
8709;DHT22;4391;48.678;9.280;2022-07-29T03:33:45;16.40;99.90
8709;DHT22;4391;48.678;9.280;2022-07-29T03:36:12;16.50;99.90
8709;DHT22;4391;48.678;9.280;2022-07-29T03:38:40;16.50;99.90
8709;DHT22;4391;48.678;9.280;2022-07-29T03:41:11;16.50;99.90
8709;DHT22;4391;48.678;9.280;2022-07-29T03:43:41;16.40;99.90
8709;DHT22;4391;48.678;9.280;2022-07-29T03:46:10;16.40;99.90
8709;DHT22;4391;48.678;9.280;2022-07-29T03:48:42;16.40;99.90
8709;DHT22;4391;48.678;9.280;2022-07-29T03:51:13;16.40;99.90
8709;DHT22;4391;48.678;9.280;2022-07-29T03:53:39;16.40;99.90
8709;DHT22;4391;48.678;9.280;2022-07-29T03:56:07;16.40;99.90
8709;DHT22;4391;48.678;9.280;2022-07-29T03:58:37;16.30;99.90
8709;DHT22;4391;48.678;9.280;2022-07-29T04:01:05;16.40;99.90
8709;DHT22;4391;48.678;9.280;2022-07-29T04:03:31;16.40;99.90
8709;DHT22;4391;48.678;9.280;2022-07-29T04:06:00;16.40;99.90
8709;DHT22;4391;48.678;9.280;2022-07-29T04:08:27;16.40;99.90
8709;DHT22;4391;48.678;9.280;2022-07-29T04:10:54;16.40;99.90
8709;DHT22;4391;48.678;9.280;2022-07-29T04:13:21;16.30;99.90
8709;DHT22;4391;48.678;9.280;2022-07-29T04:15:49;16.40;99.90
8709;DHT22;4391;48.678;9.280;2022-07-29T04:18:16;16.40;99.90
8709;DHT22;4391;48.678;9.280;2022-07-29T04:20:43;16.50;99.90
8709;DHT22;4391;48.678;9.280;2022-07-29T04:23:09;16.50;99.90
8709;DHT22;4391;48.678;9.280;2022-07-29T04:25:40;16.50;99.90
8709;DHT22;4391;48.678;9.280;2022-07-29T04:28:07;16.50;99.90
8709;DHT22;4391;48.678;9.280;2022-07-29T04:30:36;16.50;99.90
8709;DHT22;4391;48.678;9.280;2022-07-29T04:33:05;16.50;99.90
8709;DHT22;4391;48.678;9.280;2022-07-29T04:35:35;16.60;99.90
8709;DHT22;4391;48.678;9.280;2022-07-29T04:38:03;16.60;99.90
8709;DHT22;4391;48.678;9.280;2022-07-29T04:40:30;16.60;99.90
8709;DHT22;4391;48.678;9.280;2022-07-29T04:42:58;16.60;99.90
8709;DHT22;4391;48.678;9.280;2022-07-29T04:45:25;16.60;99.90
8709;DHT22;4391;48.678;9.280;2022-07-29T04:47:52;16.60;99.90
8709;DHT22;4391;48.678;9.280;2022-07-29T04:50:20;16.70;99.90
8709;DHT22;4391;48.678;9.280;2022-07-29T04:52:47;16.70;99.90
8709;DHT22;4391;48.678;9.280;2022-07-29T04:55:14;16.70;99.90
8709;DHT22;4391;48.678;9.280;2022-07-29T04:57:41;16.80;99.90
8709;DHT22;4391;48.678;9.280;2022-07-29T05:00:08;16.90;99.90
8709;DHT22;4391;48.678;9.280;2022-07-29T05:02:35;16.90;99.90
8709;DHT22;4391;48.678;9.280;2022-07-29T05:05:02;17.00;99.90
8709;DHT22;4391;48.678;9.280;2022-07-29T05:07:30;17.10;99.90
8709;DHT22;4391;48.678;9.280;2022-07-29T05:09:57;17.20;99.90
8709;DHT22;4391;48.678;9.280;2022-07-29T05:12:24;17.20;99.90
8709;DHT22;4391;48.678;9.280;2022-07-29T05:14:51;17.40;99.90
8709;DHT22;4391;48.678;9.280;2022-07-29T05:17:18;17.50;99.90
8709;DHT22;4391;48.678;9.280;2022-07-29T05:19:45;17.60;99.90
8709;DHT22;4391;48.678;9.280;2022-07-29T05:22:12;17.70;99.90
8709;DHT22;4391;48.678;9.280;2022-07-29T05:24:40;17.80;99.90
8709;DHT22;4391;48.678;9.280;2022-07-29T05:27:07;17.90;99.90
8709;DHT22;4391;48.678;9.280;2022-07-29T05:29:34;18.10;99.90
8709;DHT22;4391;48.678;9.280;2022-07-29T05:32:00;18.20;99.90
8709;DHT22;4391;48.678;9.280;2022-07-29T05:34:27;18.30;99.90
8709;DHT22;4391;48.678;9.280;2022-07-29T05:36:54;18.50;99.90
8709;DHT22;4391;48.678;9.280;2022-07-29T05:39:21;18.60;99.90
8709;DHT22;4391;48.678;9.280;2022-07-29T05:41:49;18.60;99.90
8709;DHT22;4391;48.678;9.280;2022-07-29T05:44:16;18.70;99.90
8709;DHT22;4391;48.678;9.280;2022-07-29T05:46:43;18.80;99.90
8709;DHT22;4391;48.678;9.280;2022-07-29T05:49:09;18.90;99.90
8709;DHT22;4391;48.678;9.280;2022-07-29T05:51:36;19.00;98.00
8709;DHT22;4391;48.678;9.280;2022-07-29T05:54:03;19.00;96.70
8709;DHT22;4391;48.678;9.280;2022-07-29T05:56:30;19.10;99.90
8709;DHT22;4391;48.678;9.280;2022-07-29T05:58:58;19.20;99.90
8709;DHT22;4391;48.678;9.280;2022-07-29T06:01:24;19.30;90.40
8709;DHT22;4391;48.678;9.280;2022-07-29T06:03:51;19.30;86.90
8709;DHT22;4391;48.678;9.280;2022-07-29T06:06:18;19.50;84.80
8709;DHT22;4391;48.678;9.280;2022-07-29T06:08:45;19.50;83.90
8709;DHT22;4391;48.678;9.280;2022-07-29T06:11:11;19.60;82.50
8709;DHT22;4391;48.678;9.280;2022-07-29T06:13:38;19.60;59.00
8709;DHT22;4391;48.678;9.280;2022-07-29T06:16:06;19.40;90.30
8709;DHT22;4391;48.678;9.280;2022-07-29T06:18:33;19.50;92.70
8709;DHT22;4391;48.678;9.280;2022-07-29T06:21:00;19.60;95.30
8709;DHT22;4391;48.678;9.280;2022-07-29T06:23:27;19.60;83.20
8709;DHT22;4391;48.678;9.280;2022-07-29T06:25:53;19.60;92.10
8709;DHT22;4391;48.678;9.280;2022-07-29T06:28:20;19.70;96.10
8709;DHT22;4391;48.678;9.280;2022-07-29T06:30:47;19.70;93.30
8709;DHT22;4391;48.678;9.280;2022-07-29T06:33:18;19.90;78.20
8709;DHT22;4391;48.678;9.280;2022-07-29T06:35:45;20.10;73.80
8709;DHT22;4391;48.678;9.280;2022-07-29T06:38:13;20.30;55.70
8709;DHT22;4391;48.678;9.280;2022-07-29T06:40:41;20.50;22.70
8709;DHT22;4391;48.678;9.280;2022-07-29T06:43:27;20.70;17.80
8709;DHT22;4391;48.678;9.280;2022-07-29T06:45:57;20.90;1.00
8709;DHT22;4391;48.678;9.280;2022-07-29T06:48:25;21.20;1.00
8709;DHT22;4391;48.678;9.280;2022-07-29T06:50:52;21.30;1.00
8709;DHT22;4391;48.678;9.280;2022-07-29T06:53:20;21.30;1.00
8709;DHT22;4391;48.678;9.280;2022-07-29T06:55:47;21.40;1.00
8709;DHT22;4391;48.678;9.280;2022-07-29T06:58:13;21.60;1.00
8709;DHT22;4391;48.678;9.280;2022-07-29T07:00:41;21.80;1.00
8709;DHT22;4391;48.678;9.280;2022-07-29T07:03:08;21.90;1.00
8709;DHT22;4391;48.678;9.280;2022-07-29T07:05:36;22.10;1.00
8709;DHT22;4391;48.678;9.280;2022-07-29T07:08:03;22.50;1.00
8709;DHT22;4391;48.678;9.280;2022-07-29T07:10:30;22.60;99.90
8709;DHT22;4391;48.678;9.280;2022-07-29T07:12:57;22.60;99.90
8709;DHT22;4391;48.678;9.280;2022-07-29T07:15:23;22.60;99.90
8709;DHT22;4391;48.678;9.280;2022-07-29T07:17:50;22.60;99.90
8709;DHT22;4391;48.678;9.280;2022-07-29T07:20:17;22.40;1.00
8709;DHT22;4391;48.678;9.280;2022-07-29T07:22:45;22.40;99.90
8709;DHT22;4391;48.678;9.280;2022-07-29T07:25:13;22.50;99.90
8709;DHT22;4391;48.678;9.280;2022-07-29T07:27:39;22.60;99.90
8709;DHT22;4391;48.678;9.280;2022-07-29T07:30:07;22.70;1.00
8709;DHT22;4391;48.678;9.280;2022-07-29T07:32:34;22.80;99.90
8709;DHT22;4391;48.678;9.280;2022-07-29T07:35:02;22.80;99.90
8709;DHT22;4391;48.678;9.280;2022-07-29T07:37:29;22.80;99.90
8709;DHT22;4391;48.678;9.280;2022-07-29T07:39:57;22.70;1.00
8709;DHT22;4391;48.678;9.280;2022-07-29T07:44:52;22.60;1.00
8709;DHT22;4391;48.678;9.280;2022-07-29T07:47:19;22.70;99.90
8709;DHT22;4391;48.678;9.280;2022-07-29T07:49:46;22.90;99.90
8709;DHT22;4391;48.678;9.280;2022-07-29T07:52:13;23.10;99.90
8709;DHT22;4391;48.678;9.280;2022-07-29T07:54:40;23.30;1.00
8709;DHT22;4391;48.678;9.280;2022-07-29T07:57:08;23.40;99.90
8709;DHT22;4391;48.678;9.280;2022-07-29T07:59:34;23.60;99.90
8709;DHT22;4391;48.678;9.280;2022-07-29T08:02:01;23.80;99.90
8709;DHT22;4391;48.678;9.280;2022-07-29T08:04:28;23.80;1.00
8709;DHT22;4391;48.678;9.280;2022-07-29T08:06:56;23.70;99.90
8709;DHT22;4391;48.678;9.280;2022-07-29T08:09:24;23.60;99.90
8709;DHT22;4391;48.678;9.280;2022-07-29T08:11:51;23.50;1.00
8709;DHT22;4391;48.678;9.280;2022-07-29T08:14:19;23.70;1.00
8709;DHT22;4391;48.678;9.280;2022-07-29T08:16:46;23.80;99.90
8709;DHT22;4391;48.678;9.280;2022-07-29T08:19:13;24.00;99.90
8709;DHT22;4391;48.678;9.280;2022-07-29T08:21:41;24.00;99.90
8709;DHT22;4391;48.678;9.280;2022-07-29T08:24:08;24.10;1.00
8709;DHT22;4391;48.678;9.280;2022-07-29T08:26:52;24.10;99.90
8709;DHT22;4391;48.678;9.280;2022-07-29T08:29:20;24.30;49.20
8709;DHT22;4391;48.678;9.280;2022-07-29T08:31:47;24.30;1.00
8709;DHT22;4391;48.678;9.280;2022-07-29T08:34:14;24.50;99.90
8709;DHT22;4391;48.678;9.280;2022-07-29T08:36:40;24.80;1.00
8709;DHT22;4391;48.678;9.280;2022-07-29T08:39:07;24.90;99.90
8709;DHT22;4391;48.678;9.280;2022-07-29T08:41:36;25.00;99.90
8709;DHT22;4391;48.678;9.280;2022-07-29T08:44:04;25.20;99.90
8709;DHT22;4391;48.678;9.280;2022-07-29T08:46:33;25.50;33.50
8709;DHT22;4391;48.678;9.280;2022-07-29T08:49:00;25.50;1.00
8709;DHT22;4391;48.678;9.280;2022-07-29T08:51:28;25.70;1.00
8709;DHT22;4391;48.678;9.280;2022-07-29T08:53:56;25.90;1.00
8709;DHT22;4391;48.678;9.280;2022-07-29T08:56:23;26.20;1.00
8709;DHT22;4391;48.678;9.280;2022-07-29T08:58:50;26.20;1.00
8709;DHT22;4391;48.678;9.280;2022-07-29T09:01:22;26.40;1.00
8709;DHT22;4391;48.678;9.280;2022-07-29T09:03:52;26.70;1.00
8709;DHT22;4391;48.678;9.280;2022-07-29T09:06:21;26.70;99.90
8709;DHT22;4391;48.678;9.280;2022-07-29T09:08:49;26.60;1.00
8709;DHT22;4391;48.678;9.280;2022-07-29T09:11:16;26.80;99.90
8709;DHT22;4391;48.678;9.280;2022-07-29T09:13:43;27.10;99.90
8709;DHT22;4391;48.678;9.280;2022-07-29T09:16:09;27.60;99.90
8709;DHT22;4391;48.678;9.280;2022-07-29T09:18:38;27.80;99.90
8709;DHT22;4391;48.678;9.280;2022-07-29T09:21:08;28.20;99.90
8709;DHT22;4391;48.678;9.280;2022-07-29T09:24:00;29.00;99.90
8709;DHT22;4391;48.678;9.280;2022-07-29T09:26:28;29.40;99.90
8709;DHT22;4391;48.678;9.280;2022-07-29T09:28:55;29.60;99.90
8709;DHT22;4391;48.678;9.280;2022-07-29T09:31:32;29.70;99.90
8709;DHT22;4391;48.678;9.280;2022-07-29T09:33:59;29.60;99.90
8709;DHT22;4391;48.678;9.280;2022-07-29T09:36:27;29.60;99.90
8709;DHT22;4391;48.678;9.280;2022-07-29T09:38:58;29.80;99.90
8709;DHT22;4391;48.678;9.280;2022-07-29T09:41:26;30.60;99.90
8709;DHT22;4391;48.678;9.280;2022-07-29T09:43:54;30.90;99.90
8709;DHT22;4391;48.678;9.280;2022-07-29T09:46:21;30.70;99.90
8709;DHT22;4391;48.678;9.280;2022-07-29T09:49:06;30.90;99.90
8709;DHT22;4391;48.678;9.280;2022-07-29T09:51:35;30.50;99.90
8709;DHT22;4391;48.678;9.280;2022-07-29T09:54:02;30.20;99.90
8709;DHT22;4391;48.678;9.280;2022-07-29T09:56:47;29.80;99.90
8709;DHT22;4391;48.678;9.280;2022-07-29T09:59:14;29.60;99.90
8709;DHT22;4391;48.678;9.280;2022-07-29T10:01:41;29.50;99.90
8709;DHT22;4391;48.678;9.280;2022-07-29T10:04:08;29.20;99.90
8709;DHT22;4391;48.678;9.280;2022-07-29T10:06:55;28.90;99.90
8709;DHT22;4391;48.678;9.280;2022-07-29T10:09:22;28.90;99.90
8709;DHT22;4391;48.678;9.280;2022-07-29T10:12:06;29.20;99.90
8709;DHT22;4391;48.678;9.280;2022-07-29T10:14:34;29.80;99.90
8709;DHT22;4391;48.678;9.280;2022-07-29T10:17:01;30.50;99.90
8709;DHT22;4391;48.678;9.280;2022-07-29T10:19:29;30.40;99.90
8709;DHT22;4391;48.678;9.280;2022-07-29T10:21:58;30.50;99.90
8709;DHT22;4391;48.678;9.280;2022-07-29T10:24:26;31.00;99.90
8709;DHT22;4391;48.678;9.280;2022-07-29T10:26:55;31.60;99.90
8709;DHT22;4391;48.678;9.280;2022-07-29T10:29:22;31.70;99.90
8709;DHT22;4391;48.678;9.280;2022-07-29T10:31:56;32.00;99.90
8709;DHT22;4391;48.678;9.280;2022-07-29T10:34:32;32.40;99.90
8709;DHT22;4391;48.678;9.280;2022-07-29T10:37:12;32.10;99.90
8709;DHT22;4391;48.678;9.280;2022-07-29T10:39:51;32.10;99.90
8709;DHT22;4391;48.678;9.280;2022-07-29T10:42:22;31.90;99.90
8709;DHT22;4391;48.678;9.280;2022-07-29T10:44:50;31.70;99.90
8709;DHT22;4391;48.678;9.280;2022-07-29T10:47:22;31.60;99.90
8709;DHT22;4391;48.678;9.280;2022-07-29T10:49:56;30.90;99.90
8709;DHT22;4391;48.678;9.280;2022-07-29T10:52:35;30.50;99.90
8709;DHT22;4391;48.678;9.280;2022-07-29T10:55:31;30.10;99.90
8709;DHT22;4391;48.678;9.280;2022-07-29T10:58:16;29.30;99.90
8709;DHT22;4391;48.678;9.280;2022-07-29T11:00:44;28.90;99.90
8709;DHT22;4391;48.678;9.280;2022-07-29T11:06:20;28.50;99.90
8709;DHT22;4391;48.678;9.280;2022-07-29T11:09:15;28.40;99.90
8709;DHT22;4391;48.678;9.280;2022-07-29T11:11:42;28.10;99.90
8709;DHT22;4391;48.678;9.280;2022-07-29T11:14:09;27.80;99.90
8709;DHT22;4391;48.678;9.280;2022-07-29T11:17:00;27.60;99.90
8709;DHT22;4391;48.678;9.280;2022-07-29T11:19:29;27.20;99.90
8709;DHT22;4391;48.678;9.280;2022-07-29T11:21:56;27.00;99.90
8709;DHT22;4391;48.678;9.280;2022-07-29T11:24:26;26.90;99.90
8709;DHT22;4391;48.678;9.280;2022-07-29T11:27:12;26.80;99.90
8709;DHT22;4391;48.678;9.280;2022-07-29T11:29:48;26.20;99.90
8709;DHT22;4391;48.678;9.280;2022-07-29T11:32:16;25.00;99.90
8709;DHT22;4391;48.678;9.280;2022-07-29T11:34:46;23.10;1.00
8709;DHT22;4391;48.678;9.280;2022-07-29T11:37:23;21.70;99.90
8709;DHT22;4391;48.678;9.280;2022-07-29T11:40:24;20.50;99.90
8709;DHT22;4391;48.678;9.280;2022-07-29T11:42:51;19.40;1.00
8709;DHT22;4391;48.678;9.280;2022-07-29T11:45:23;18.80;1.00
8709;DHT22;4391;48.678;9.280;2022-07-29T11:47:55;18.50;37.50
8709;DHT22;4391;48.678;9.280;2022-07-29T11:50:34;18.40;18.40
8709;DHT22;4391;48.678;9.280;2022-07-29T11:53:03;18.30;1.00
8709;DHT22;4391;48.678;9.280;2022-07-29T11:55:38;18.20;29.50
8709;DHT22;4391;48.678;9.280;2022-07-29T11:58:05;18.20;23.50
8709;DHT22;4391;48.678;9.280;2022-07-29T12:00:33;18.10;33.10
8709;DHT22;4391;48.678;9.280;2022-07-29T12:03:01;18.10;58.70
8709;DHT22;4391;48.678;9.280;2022-07-29T12:05:37;18.30;99.90
8709;DHT22;4391;48.678;9.280;2022-07-29T12:08:10;18.50;56.70
8709;DHT22;4391;48.678;9.280;2022-07-29T12:10:40;18.70;19.00
8709;DHT22;4391;48.678;9.280;2022-07-29T12:13:07;19.00;27.30
8709;DHT22;4391;48.678;9.280;2022-07-29T12:15:35;19.60;97.10
8709;DHT22;4391;48.678;9.280;2022-07-29T12:18:13;20.10;99.90
8709;DHT22;4391;48.678;9.280;2022-07-29T12:20:40;20.40;70.80
8709;DHT22;4391;48.678;9.280;2022-07-29T12:23:07;20.50;6.40
8709;DHT22;4391;48.678;9.280;2022-07-29T12:25:39;20.40;9.30
8709;DHT22;4391;48.678;9.280;2022-07-29T12:28:08;20.20;3.40
8709;DHT22;4391;48.678;9.280;2022-07-29T12:30:37;20.10;36.80
8709;DHT22;4391;48.678;9.280;2022-07-29T12:33:14;19.80;25.80
8709;DHT22;4391;48.678;9.280;2022-07-29T12:35:42;19.70;93.40
8709;DHT22;4391;48.678;9.280;2022-07-29T12:38:10;19.70;92.90
8709;DHT22;4391;48.678;9.280;2022-07-29T12:40:39;19.50;76.90
8709;DHT22;4391;48.678;9.280;2022-07-29T12:43:08;19.40;86.80
8709;DHT22;4391;48.678;9.280;2022-07-29T12:45:36;19.20;76.60
8709;DHT22;4391;48.678;9.280;2022-07-29T12:48:03;19.10;17.50
8709;DHT22;4391;48.678;9.280;2022-07-29T12:50:31;19.00;44.30
8709;DHT22;4391;48.678;9.280;2022-07-29T12:53:08;18.80;89.40
8709;DHT22;4391;48.678;9.280;2022-07-29T12:55:43;18.60;99.90
8709;DHT22;4391;48.678;9.280;2022-07-29T12:58:11;18.60;99.90
8709;DHT22;4391;48.678;9.280;2022-07-29T13:00:38;18.50;99.90
8709;DHT22;4391;48.678;9.280;2022-07-29T13:03:04;18.60;99.90
8709;DHT22;4391;48.678;9.280;2022-07-29T13:05:42;18.60;99.90
8709;DHT22;4391;48.678;9.280;2022-07-29T13:08:13;18.70;99.90
8709;DHT22;4391;48.678;9.280;2022-07-29T13:10:41;18.80;99.90
8709;DHT22;4391;48.678;9.280;2022-07-29T13:13:10;18.90;99.90
8709;DHT22;4391;48.678;9.280;2022-07-29T13:15:37;19.10;99.90
8709;DHT22;4391;48.678;9.280;2022-07-29T13:18:05;19.20;99.90
8709;DHT22;4391;48.678;9.280;2022-07-29T13:20:32;19.30;99.90
8709;DHT22;4391;48.678;9.280;2022-07-29T13:23:00;19.50;99.90
8709;DHT22;4391;48.678;9.280;2022-07-29T13:25:28;19.60;99.90
8709;DHT22;4391;48.678;9.280;2022-07-29T13:27:57;19.70;99.90
8709;DHT22;4391;48.678;9.280;2022-07-29T13:30:24;19.70;99.90
8709;DHT22;4391;48.678;9.280;2022-07-29T13:32:51;19.80;99.90
8709;DHT22;4391;48.678;9.280;2022-07-29T13:35:19;19.80;99.90
8709;DHT22;4391;48.678;9.280;2022-07-29T13:37:46;19.90;99.90
8709;DHT22;4391;48.678;9.280;2022-07-29T13:40:13;19.80;99.90
8709;DHT22;4391;48.678;9.280;2022-07-29T13:42:41;19.90;99.90
8709;DHT22;4391;48.678;9.280;2022-07-29T13:45:10;19.90;99.90
8709;DHT22;4391;48.678;9.280;2022-07-29T13:47:37;19.90;99.90
8709;DHT22;4391;48.678;9.280;2022-07-29T13:50:06;19.80;99.90
8709;DHT22;4391;48.678;9.280;2022-07-29T13:52:35;19.80;99.90
8709;DHT22;4391;48.678;9.280;2022-07-29T13:55:03;19.90;99.90
8709;DHT22;4391;48.678;9.280;2022-07-29T13:57:30;19.80;99.90
8709;DHT22;4391;48.678;9.280;2022-07-29T13:59:57;20.00;99.90
8709;DHT22;4391;48.678;9.280;2022-07-29T14:02:25;20.10;99.90
8709;DHT22;4391;48.678;9.280;2022-07-29T14:04:52;20.30;99.90
8709;DHT22;4391;48.678;9.280;2022-07-29T14:07:19;20.40;99.90
8709;DHT22;4391;48.678;9.280;2022-07-29T14:09:46;20.60;99.90
8709;DHT22;4391;48.678;9.280;2022-07-29T14:12:12;20.60;89.60
8709;DHT22;4391;48.678;9.280;2022-07-29T14:14:39;20.70;93.40
8709;DHT22;4391;48.678;9.280;2022-07-29T14:17:07;20.80;99.90
8709;DHT22;4391;48.678;9.280;2022-07-29T14:19:35;20.80;99.90
8709;DHT22;4391;48.678;9.280;2022-07-29T14:22:03;20.90;84.40
8709;DHT22;4391;48.678;9.280;2022-07-29T14:24:31;21.00;69.30
8709;DHT22;4391;48.678;9.280;2022-07-29T14:26:58;21.00;72.10
8709;DHT22;4391;48.678;9.280;2022-07-29T14:29:24;21.10;63.40
8709;DHT22;4391;48.678;9.280;2022-07-29T14:31:51;21.20;42.20
8709;DHT22;4391;48.678;9.280;2022-07-29T14:34:18;21.20;81.00
8709;DHT22;4391;48.678;9.280;2022-07-29T14:36:46;21.20;41.60
8709;DHT22;4391;48.678;9.280;2022-07-29T14:39:13;21.40;54.00
8709;DHT22;4391;48.678;9.280;2022-07-29T14:41:41;21.40;34.00
8709;DHT22;4391;48.678;9.280;2022-07-29T14:44:08;21.50;20.40
8709;DHT22;4391;48.678;9.280;2022-07-29T14:46:35;21.50;19.60
8709;DHT22;4391;48.678;9.280;2022-07-29T14:49:01;21.50;14.40
8709;DHT22;4391;48.678;9.280;2022-07-29T14:51:28;21.60;1.00
8709;DHT22;4391;48.678;9.280;2022-07-29T14:53:56;21.60;6.50
8709;DHT22;4391;48.678;9.280;2022-07-29T14:56:23;21.70;1.00
8709;DHT22;4391;48.678;9.280;2022-07-29T14:58:50;21.70;1.00
8709;DHT22;4391;48.678;9.280;2022-07-29T15:01:16;21.70;1.00
8709;DHT22;4391;48.678;9.280;2022-07-29T15:03:43;21.70;1.00
8709;DHT22;4391;48.678;9.280;2022-07-29T15:06:10;21.70;1.00
8709;DHT22;4391;48.678;9.280;2022-07-29T15:08:37;21.60;1.00
8709;DHT22;4391;48.678;9.280;2022-07-29T15:11:05;21.70;1.00
8709;DHT22;4391;48.678;9.280;2022-07-29T15:13:33;21.70;1.00
8709;DHT22;4391;48.678;9.280;2022-07-29T15:16:00;21.60;22.50
8709;DHT22;4391;48.678;9.280;2022-07-29T15:18:27;21.70;33.60
8709;DHT22;4391;48.678;9.280;2022-07-29T15:20:54;21.70;1.00
8709;DHT22;4391;48.678;9.280;2022-07-29T15:23:21;21.60;1.00
8709;DHT22;4391;48.678;9.280;2022-07-29T15:25:48;21.60;1.00
8709;DHT22;4391;48.678;9.280;2022-07-29T15:28:16;21.70;1.00
8709;DHT22;4391;48.678;9.280;2022-07-29T15:30:43;21.60;1.00
8709;DHT22;4391;48.678;9.280;2022-07-29T15:33:09;21.60;1.00
8709;DHT22;4391;48.678;9.280;2022-07-29T15:35:36;21.70;1.00
8709;DHT22;4391;48.678;9.280;2022-07-29T15:38:03;21.70;1.00
8709;DHT22;4391;48.678;9.280;2022-07-29T15:40:30;21.70;1.00
8709;DHT22;4391;48.678;9.280;2022-07-29T15:42:57;21.70;1.00
8709;DHT22;4391;48.678;9.280;2022-07-29T15:45:27;21.70;1.00
8709;DHT22;4391;48.678;9.280;2022-07-29T15:47:54;21.90;1.00
8709;DHT22;4391;48.678;9.280;2022-07-29T15:50:20;21.90;1.00
8709;DHT22;4391;48.678;9.280;2022-07-29T15:52:47;22.00;1.00
8709;DHT22;4391;48.678;9.280;2022-07-29T15:55:14;22.00;1.00
8709;DHT22;4391;48.678;9.280;2022-07-29T15:57:41;22.10;1.00
8709;DHT22;4391;48.678;9.280;2022-07-29T16:00:10;22.10;1.00
8709;DHT22;4391;48.678;9.280;2022-07-29T16:02:39;22.00;1.00
8709;DHT22;4391;48.678;9.280;2022-07-29T16:05:06;22.10;1.00
8709;DHT22;4391;48.678;9.280;2022-07-29T16:07:33;22.20;1.00
8709;DHT22;4391;48.678;9.280;2022-07-29T16:10:00;22.30;1.00
8709;DHT22;4391;48.678;9.280;2022-07-29T16:12:27;22.40;1.00
8709;DHT22;4391;48.678;9.280;2022-07-29T16:14:54;22.50;1.00
8709;DHT22;4391;48.678;9.280;2022-07-29T16:17:20;22.60;1.00
8709;DHT22;4391;48.678;9.280;2022-07-29T16:19:49;22.80;1.00
8709;DHT22;4391;48.678;9.280;2022-07-29T16:22:16;22.90;1.00
8709;DHT22;4391;48.678;9.280;2022-07-29T16:24:42;22.90;99.90